Historyczne dane pomiarowe

Dodano dane terminowe – wersja testowa.

Dane z okresu 1951-2019

Wersja bazy: 1.34 [2019-03-16, lista zmian], aktualizacja planowana na 2019-04-15

Dane meteo z obszaru Polski uzyskane na podstawie danych udostępnionych przez Instytut Meteorologii i Gospodarki Wodnej – Państwowy Instytut Badawczy.

 

Wybierz Datę:    

       

TemperaturaWilgotnośćWiatrCiśnienieOpadyŚniegCzas trwania zjawisk
 Stacja t tx tn tng RH VA  wxwx mslp ppp RRR   cm mm wxwxwxwxwxwxwx
1994-08-14 15.4 19.9 10.6 7.0 59.5- 4.3 2.7---- 0.0------------
1994-08-13 17.5 22.8 15.2 14.3 73.8- 6.0 3.3---- 0.0------------
1994-08-12 18.0 22.1 14.7 13.6 77.8- 8.0 1.3---- 1.6------------
1994-08-11 21.1 24.3 17.2 7.6 75.8- 6.7 2.7---- 0.3------------
1994-08-10 21.3 28.8 12.1 8.8 66.5- 4.7 1.0---- 12.0------------
1994-08-09 19.3 23.4 17.7 17.9 82.0- 5.3 2.7---- 0.1------------
1994-08-08 22.0 25.3 16.9 17.1 76.5- 7.7 2.0---- 4.3------------
1994-08-07 24.0 30.0 17.0 13.8 67.5- 4.0 1.0---- 0.0------------
1994-08-06 25.2 33.0 16.3 12.3 60.0- 5.3 1.3---- 0.0------------
1994-08-05 24.8 32.0 16.7 11.8 53.3- 1.0 1.3---- 0.0------------
1994-08-04 23.6 29.7 16.4 15.5 56.8- 3.3 1.7---- 0.0------------
1994-08-03 24.3 29.0 19.3 20.0 68.8- 4.0 2.3---- 0.0------------
1994-08-02 26.8 32.7 19.4 14.9 58.3- 4.0 4.3---- 0.0------------
1994-08-01 28.3 36.0 17.6 13.8 51.8- 2.0 1.3---- 0.0------------
1994-07-31 26.1 35.2 17.4 12.4 52.5- 3.3 1.7---- 0.0------------
1994-07-30 27.5 34.8 17.2 14.8 48.3- 0.0 1.3---- 0.0------------
1994-07-29 26.7 34.3 14.9 13.8 52.0- 2.0 2.3---- 0.0------------
1994-07-28 26.7 33.5 16.7 12.5 48.3- 4.3 3.0---- 0.0------------
1994-07-27 25.9 33.3 17.2 15.0 51.8- 3.3 1.3---- 0.0------------
1994-07-26 25.7 33.0 16.3 11.7 51.3- 2.0 0.3---- 0.0------------
1994-07-25 24.6 32.0 14.6 9.3 51.0- 1.7 0.3---- 0.0------------
1994-07-24 23.4 30.5 14.7 12.8 52.5- 0.7 1.3---- 0.0------------
1994-07-23 23.2 29.2 13.2 7.8 51.0- 2.0 1.7---- 0.0------------
1994-07-22 22.0 29.5 11.6 10.2 53.3- 1.3 1.7---- 0.0------------
1994-07-21 20.2 26.8 10.9 10.2 54.8- 0.3 1.7---- 0.0------------
1994-07-20 19.7 24.6 13.3 13.3 54.0- 4.7 1.7---- 0.0------------
1994-07-19 19.1 23.6 15.4 14.0 68.5- 7.0 3.0---- 0.0------------
1994-07-18 20.7 25.8 14.7 13.0 71.8- 6.0 1.3---- 0.0------------
1994-07-17 21.2 29.0 14.7 14.3 70.3- 6.3 1.3---- 6.7------------
1994-07-16 22.2 29.5 17.2 16.4 70.0- 6.0 1.7---- 0.3------------
1994-07-15 22.5 29.2 13.7 10.3 63.0- 5.3 0.7---- 0.0------------
1994-07-14 22.6 30.2 13.7 10.3 63.8- 5.3 0.3---- 0.7------------
1994-07-13 21.2 28.1 15.0 13.3 60.8- 6.3 1.3---- 0.0------------
1994-07-12 21.0 26.1 15.4 13.4 69.3- 7.3 2.0---- 0.0------------
1994-07-11 20.0 25.2 13.7 11.7 72.0- 7.7 3.3---- 0.0------------
1994-07-10 16.8 21.8 13.2 12.3 80.3- 8.0 1.7---- 0.7------------
1994-07-09 16.4 19.8 13.2 10.6 77.5- 7.3 4.0---- 8.1------------
1994-07-08 17.3 21.3 9.8 6.3 65.3- 6.0 3.0---- 0.0------------
1994-07-07 18.9 24.3 13.7 13.8 77.3- 7.3 2.7---- 0.0------------
1994-07-06 20.1 26.1 13.0 12.8 66.5- 4.7 2.0---- 0.0------------
1994-07-05 20.6 26.9 12.8 12.3 70.5- 6.7 1.7---- 0.0------------
1994-07-04 21.3 30.0 12.2 8.8 59.0- 3.3 1.0---- 0.0------------
1994-07-03 21.2 28.1 9.6 6.6 59.0- 2.0 0.7---- 0.0------------
1994-07-02 19.4 25.9 11.1 8.3 62.8- 0.0 1.7---- 0.0------------
1994-07-01 17.7 22.6 12.1 10.2 71.5- 2.0 2.3---- 0.0------------
1994-06-30 20.0 26.1 17.7 18.4 95.3- 6.7 3.3---- 2.5------------
1994-06-29 24.8 31.8 18.0 16.9 76.3- 3.3 2.3---- 0.0------------
1994-06-28 25.2 30.8 19.3 17.6 76.3- 2.7 1.7---- 0.0------------
1994-06-27 26.1 32.0 18.3 14.8 68.5- 2.7 0.0---- 0.0------------
1994-06-26 20.8 29.6 9.1 6.3 65.5- 4.3 4.7---- 0.0------------
1994-06-25 16.2 24.3 4.8 4.9 58.8- 0.7 1.3---- 0.0------------
1994-06-24 15.9 21.1 8.3 3.9 55.8- 2.7 2.3---- 0.0------------
1994-06-23 18.5 23.6 15.7 14.6 58.8- 5.3 4.7---- 0.0------------
1994-06-22 20.4 27.2 10.1 10.3 62.3- 7.0 2.3---- 0.0------------
1994-06-21 16.7 21.8 9.1 6.8 64.0- 3.3 2.0---- 0.0------------
1994-06-20 16.7 22.5 12.2 7.7 66.5- 7.3 3.3---- 0.0------------
1994-06-19 19.0 27.1 12.2 11.7 67.0- 5.7 2.7---- 0.0------------
1994-06-18 12.6 20.8 3.8 1.6 70.5- 7.7 1.3---- 0.3------------
1994-06-17 10.8 14.6 8.2 7.3 73.0- 7.3 2.3---- 0.0------------
1994-06-16 12.9 16.1 7.4 3.9 69.3- 8.0 3.0---- 3.9------------
249.8 ms

 

Źródłem pochodzenia danych jest Instytut Meteorologii i Gospodarki Wodnej – Państwowy Instytut Badawczy. Dane Instytutu Meteorologii i Gospodarki Wodnej – Państwowego Instytutu Badawczego zostały przetworzone.

Dane źródłowe można odnaleźć na stronie https://dane.imgw.pl